sensor_id;sensor_type;location;lat;lon;timestamp;pressure;altitude;pressure_sealevel;temperature;humidity
78431;BME280;67727;50.236;22.452;2024-01-30T00:02:17;101765.73;;;-1.45;86.21
78431;BME280;67727;50.236;22.452;2024-01-30T00:04:44;101764.13;;;-1.44;86.43
78431;BME280;67727;50.236;22.452;2024-01-30T00:07:10;101763.77;;;-1.43;86.11
78431;BME280;67727;50.236;22.452;2024-01-30T00:09:38;101761.49;;;-1.43;86.08
78431;BME280;67727;50.236;22.452;2024-01-30T00:12:08;101755.80;;;-1.44;86.10
78431;BME280;67727;50.236;22.452;2024-01-30T00:14:35;101757.10;;;-1.47;85.77
78431;BME280;67727;50.236;22.452;2024-01-30T00:17:02;101757.36;;;-1.49;85.74
78431;BME280;67727;50.236;22.452;2024-01-30T00:19:29;101757.27;;;-1.52;85.77
78431;BME280;67727;50.236;22.452;2024-01-30T00:21:55;101758.88;;;-1.54;86.00
78431;BME280;67727;50.236;22.452;2024-01-30T00:24:22;101758.89;;;-1.54;85.92
78431;BME280;67727;50.236;22.452;2024-01-30T00:26:49;101751.95;;;-1.54;85.93
78431;BME280;67727;50.236;22.452;2024-01-30T00:29:16;101746.90;;;-1.53;85.94
78431;BME280;67727;50.236;22.452;2024-01-30T00:31:46;101745.34;;;-1.53;85.90
78431;BME280;67727;50.236;22.452;2024-01-30T00:34:13;101736.14;;;-1.53;85.88
78431;BME280;67727;50.236;22.452;2024-01-30T00:36:40;101733.38;;;-1.53;85.92
78431;BME280;67727;50.236;22.452;2024-01-30T00:39:07;101730.17;;;-1.50;86.02
78431;BME280;67727;50.236;22.452;2024-01-30T00:41:35;101729.59;;;-1.48;86.04
78431;BME280;67727;50.236;22.452;2024-01-30T00:44:03;101723.03;;;-1.49;86.01
78431;BME280;67727;50.236;22.452;2024-01-30T00:46:29;101723.54;;;-1.49;86.08
78431;BME280;67727;50.236;22.452;2024-01-30T00:48:56;101722.64;;;-1.48;86.10
78431;BME280;67727;50.236;22.452;2024-01-30T00:51:23;101718.85;;;-1.49;86.12
78431;BME280;67727;50.236;22.452;2024-01-30T00:53:50;101716.32;;;-1.50;85.95
78431;BME280;67727;50.236;22.452;2024-01-30T00:56:17;101713.98;;;-1.53;85.75
78431;BME280;67727;50.236;22.452;2024-01-30T00:58:45;101710.13;;;-1.57;85.71
78431;BME280;67727;50.236;22.452;2024-01-30T01:01:12;101708.98;;;-1.60;85.75
78431;BME280;67727;50.236;22.452;2024-01-30T01:03:39;101713.98;;;-1.59;85.75
78431;BME280;67727;50.236;22.452;2024-01-30T01:06:07;101710.36;;;-1.59;86.00
78431;BME280;67727;50.236;22.452;2024-01-30T01:08:35;101713.30;;;-1.59;85.76
78431;BME280;67727;50.236;22.452;2024-01-30T01:11:02;101706.73;;;-1.60;85.95
78431;BME280;67727;50.236;22.452;2024-01-30T01:13:30;101706.00;;;-1.58;85.85
78431;BME280;67727;50.236;22.452;2024-01-30T01:15:57;101708.71;;;-1.56;85.85
78431;BME280;67727;50.236;22.452;2024-01-30T01:18:24;101712.10;;;-1.54;85.68
78431;BME280;67727;50.236;22.452;2024-01-30T01:20:51;101710.83;;;-1.53;85.66
78431;BME280;67727;50.236;22.452;2024-01-30T01:23:18;101712.59;;;-1.54;85.58
78431;BME280;67727;50.236;22.452;2024-01-30T01:25:45;101711.57;;;-1.54;85.67
78431;BME280;67727;50.236;22.452;2024-01-30T01:28:12;101706.83;;;-1.57;85.36
78431;BME280;67727;50.236;22.452;2024-01-30T01:30:39;101703.30;;;-1.61;85.29
78431;BME280;67727;50.236;22.452;2024-01-30T01:33:06;101706.08;;;-1.66;85.10
78431;BME280;67727;50.236;22.452;2024-01-30T01:35:33;101702.83;;;-1.73;85.11
78431;BME280;67727;50.236;22.452;2024-01-30T01:38:00;101707.17;;;-1.79;85.25
78431;BME280;67727;50.236;22.452;2024-01-30T01:40:27;101708.21;;;-1.84;85.54
78431;BME280;67727;50.236;22.452;2024-01-30T01:42:55;101709.70;;;-1.87;85.60
78431;BME280;67727;50.236;22.452;2024-01-30T01:45:22;101707.20;;;-1.90;85.60
78431;BME280;67727;50.236;22.452;2024-01-30T01:47:52;101707.75;;;-1.93;85.85
78431;BME280;67727;50.236;22.452;2024-01-30T01:50:20;101707.46;;;-1.94;85.79
78431;BME280;67727;50.236;22.452;2024-01-30T01:52:49;101705.30;;;-1.97;85.65
78431;BME280;67727;50.236;22.452;2024-01-30T01:55:18;101706.73;;;-1.98;85.65
78431;BME280;67727;50.236;22.452;2024-01-30T01:57:48;101709.14;;;-1.98;85.80
78431;BME280;67727;50.236;22.452;2024-01-30T02:00:15;101714.51;;;-1.98;85.79
78431;BME280;67727;50.236;22.452;2024-01-30T02:02:43;101714.14;;;-1.97;85.70
78431;BME280;67727;50.236;22.452;2024-01-30T02:05:12;101714.31;;;-1.97;85.73
78431;BME280;67727;50.236;22.452;2024-01-30T02:07:40;101713.96;;;-1.97;86.01
78431;BME280;67727;50.236;22.452;2024-01-30T02:10:07;101712.16;;;-1.95;86.18
78431;BME280;67727;50.236;22.452;2024-01-30T02:12:34;101713.39;;;-1.95;86.34
78431;BME280;67727;50.236;22.452;2024-01-30T02:15:01;101711.36;;;-1.96;86.41
78431;BME280;67727;50.236;22.452;2024-01-30T02:17:28;101712.12;;;-1.99;86.56
78431;BME280;67727;50.236;22.452;2024-01-30T02:19:55;101713.42;;;-2.02;86.51
78431;BME280;67727;50.236;22.452;2024-01-30T02:22:22;101707.99;;;-2.06;86.53
78431;BME280;67727;50.236;22.452;2024-01-30T02:24:50;101712.09;;;-2.09;86.59
78431;BME280;67727;50.236;22.452;2024-01-30T02:27:16;101713.39;;;-2.12;86.79
78431;BME280;67727;50.236;22.452;2024-01-30T02:29:43;101713.22;;;-2.13;86.64
78431;BME280;67727;50.236;22.452;2024-01-30T02:32:10;101716.72;;;-2.14;86.56
78431;BME280;67727;50.236;22.452;2024-01-30T02:34:37;101713.07;;;-2.13;86.48
78431;BME280;67727;50.236;22.452;2024-01-30T02:37:04;101712.02;;;-2.13;86.66
78431;BME280;67727;50.236;22.452;2024-01-30T02:39:31;101708.13;;;-2.10;86.54
78431;BME280;67727;50.236;22.452;2024-01-30T02:41:57;101709.55;;;-2.06;86.66
78431;BME280;67727;50.236;22.452;2024-01-30T02:44:24;101708.84;;;-2.00;86.57
78431;BME280;67727;50.236;22.452;2024-01-30T02:46:51;101703.39;;;-1.97;86.19
78431;BME280;67727;50.236;22.452;2024-01-30T02:49:20;101702.83;;;-1.96;86.11
78431;BME280;67727;50.236;22.452;2024-01-30T02:51:48;101699.71;;;-1.95;85.97
78431;BME280;67727;50.236;22.452;2024-01-30T02:54:14;101705.41;;;-1.95;85.86
78431;BME280;67727;50.236;22.452;2024-01-30T02:56:41;101706.00;;;-1.97;85.71
78431;BME280;67727;50.236;22.452;2024-01-30T02:59:08;101701.96;;;-2.01;85.66
78431;BME280;67727;50.236;22.452;2024-01-30T03:01:42;101703.27;;;-2.04;85.76
78431;BME280;67727;50.236;22.452;2024-01-30T03:04:10;101698.34;;;-2.07;85.62
78431;BME280;67727;50.236;22.452;2024-01-30T03:06:37;101699.44;;;-2.09;85.75
78431;BME280;67727;50.236;22.452;2024-01-30T03:09:04;101697.71;;;-2.09;85.90
78431;BME280;67727;50.236;22.452;2024-01-30T03:11:32;101697.16;;;-2.08;86.09
78431;BME280;67727;50.236;22.452;2024-01-30T03:13:58;101692.66;;;-2.08;85.97
78431;BME280;67727;50.236;22.452;2024-01-30T03:16:25;101695.05;;;-2.07;86.14
78431;BME280;67727;50.236;22.452;2024-01-30T03:18:52;101689.10;;;-2.05;86.26
78431;BME280;67727;50.236;22.452;2024-01-30T03:21:19;101687.67;;;-2.03;86.08
78431;BME280;67727;50.236;22.452;2024-01-30T03:23:46;101690.95;;;-2.03;85.94
78431;BME280;67727;50.236;22.452;2024-01-30T03:26:13;101690.95;;;-2.03;85.86
78431;BME280;67727;50.236;22.452;2024-01-30T03:28:41;101690.28;;;-2.04;85.89
78431;BME280;67727;50.236;22.452;2024-01-30T03:31:08;101689.79;;;-2.05;85.95
78431;BME280;67727;50.236;22.452;2024-01-30T03:33:36;101685.73;;;-2.08;85.83
78431;BME280;67727;50.236;22.452;2024-01-30T03:36:04;101685.68;;;-2.12;85.79
78431;BME280;67727;50.236;22.452;2024-01-30T03:38:31;101690.48;;;-2.16;85.93
78431;BME280;67727;50.236;22.452;2024-01-30T03:41:01;101692.50;;;-2.21;85.93
78431;BME280;67727;50.236;22.452;2024-01-30T03:43:28;101696.77;;;-2.23;85.92
78431;BME280;67727;50.236;22.452;2024-01-30T03:45:55;101693.32;;;-2.24;86.02
78431;BME280;67727;50.236;22.452;2024-01-30T03:48:21;101689.86;;;-2.25;86.16
78431;BME280;67727;50.236;22.452;2024-01-30T03:50:48;101688.81;;;-2.24;86.15
78431;BME280;67727;50.236;22.452;2024-01-30T03:53:15;101684.29;;;-2.23;86.13
78431;BME280;67727;50.236;22.452;2024-01-30T03:55:42;101688.19;;;-2.21;86.11
78431;BME280;67727;50.236;22.452;2024-01-30T03:58:09;101686.02;;;-2.18;86.19
78431;BME280;67727;50.236;22.452;2024-01-30T04:00:36;101686.81;;;-2.15;86.01
78431;BME280;67727;50.236;22.452;2024-01-30T04:03:03;101686.39;;;-2.13;86.06
78431;BME280;67727;50.236;22.452;2024-01-30T04:05:30;101684.44;;;-2.12;85.93
78431;BME280;67727;50.236;22.452;2024-01-30T04:07:57;101682.73;;;-2.13;85.83
78431;BME280;67727;50.236;22.452;2024-01-30T04:10:24;101681.40;;;-2.14;85.75
78431;BME280;67727;50.236;22.452;2024-01-30T04:12:51;101680.64;;;-2.17;85.68
78431;BME280;67727;50.236;22.452;2024-01-30T04:15:18;101680.94;;;-2.21;85.74
78431;BME280;67727;50.236;22.452;2024-01-30T04:17:45;101683.30;;;-2.26;85.67
78431;BME280;67727;50.236;22.452;2024-01-30T04:20:15;101682.39;;;-2.29;85.89
78431;BME280;67727;50.236;22.452;2024-01-30T04:22:44;101679.71;;;-2.33;86.05
78431;BME280;67727;50.236;22.452;2024-01-30T04:25:14;101682.02;;;-2.34;86.04
78431;BME280;67727;50.236;22.452;2024-01-30T04:27:41;101684.83;;;-2.36;86.26
78431;BME280;67727;50.236;22.452;2024-01-30T04:30:09;101685.23;;;-2.37;86.09
78431;BME280;67727;50.236;22.452;2024-01-30T04:32:36;101684.61;;;-2.40;86.06
78431;BME280;67727;50.236;22.452;2024-01-30T04:35:03;101686.20;;;-2.41;85.96
78431;BME280;67727;50.236;22.452;2024-01-30T04:37:30;101685.83;;;-2.40;86.01
78431;BME280;67727;50.236;22.452;2024-01-30T04:39:58;101683.71;;;-2.39;86.09
78431;BME280;67727;50.236;22.452;2024-01-30T04:42:25;101682.85;;;-2.39;86.07
78431;BME280;67727;50.236;22.452;2024-01-30T04:44:52;101684.96;;;-2.40;85.95
78431;BME280;67727;50.236;22.452;2024-01-30T04:47:19;101682.74;;;-2.41;86.05
78431;BME280;67727;50.236;22.452;2024-01-30T04:49:46;101686.42;;;-2.42;86.08
78431;BME280;67727;50.236;22.452;2024-01-30T04:52:13;101684.20;;;-2.43;86.04
78431;BME280;67727;50.236;22.452;2024-01-30T04:54:40;101686.13;;;-2.45;85.95
78431;BME280;67727;50.236;22.452;2024-01-30T04:57:07;101686.16;;;-2.46;86.11
78431;BME280;67727;50.236;22.452;2024-01-30T04:59:36;101690.48;;;-2.46;85.99
78431;BME280;67727;50.236;22.452;2024-01-30T05:02:03;101688.23;;;-2.46;86.07
78431;BME280;67727;50.236;22.452;2024-01-30T05:04:30;101690.32;;;-2.46;85.99
78431;BME280;67727;50.236;22.452;2024-01-30T05:06:57;101690.31;;;-2.46;85.78
78431;BME280;67727;50.236;22.452;2024-01-30T05:09:24;101689.32;;;-2.48;85.90
78431;BME280;67727;50.236;22.452;2024-01-30T05:11:50;101685.75;;;-2.49;85.86
78431;BME280;67727;50.236;22.452;2024-01-30T05:14:17;101689.09;;;-2.52;85.86
78431;BME280;67727;50.236;22.452;2024-01-30T05:16:44;101690.23;;;-2.55;85.75
78431;BME280;67727;50.236;22.452;2024-01-30T05:19:14;101690.88;;;-2.59;85.67
78431;BME280;67727;50.236;22.452;2024-01-30T05:21:41;101688.41;;;-2.64;85.96
78431;BME280;67727;50.236;22.452;2024-01-30T05:24:08;101684.85;;;-2.66;86.13
78431;BME280;67727;50.236;22.452;2024-01-30T05:26:36;101687.21;;;-2.70;86.20
78431;BME280;67727;50.236;22.452;2024-01-30T05:29:04;101687.79;;;-2.72;86.28
78431;BME280;67727;50.236;22.452;2024-01-30T05:31:31;101690.11;;;-2.75;86.26
78431;BME280;67727;50.236;22.452;2024-01-30T05:33:59;101693.11;;;-2.77;86.47
78431;BME280;67727;50.236;22.452;2024-01-30T05:36:26;101693.79;;;-2.76;86.47
78431;BME280;67727;50.236;22.452;2024-01-30T05:38:53;101694.85;;;-2.77;86.46
78431;BME280;67727;50.236;22.452;2024-01-30T05:41:20;101694.33;;;-2.77;86.54
78431;BME280;67727;50.236;22.452;2024-01-30T05:43:50;101691.21;;;-2.77;86.57
78431;BME280;67727;50.236;22.452;2024-01-30T05:46:18;101694.28;;;-2.76;86.68
78431;BME280;67727;50.236;22.452;2024-01-30T05:48:45;101695.30;;;-2.75;86.72
78431;BME280;67727;50.236;22.452;2024-01-30T05:51:12;101692.33;;;-2.74;86.67
78431;BME280;67727;50.236;22.452;2024-01-30T05:53:38;101692.65;;;-2.73;86.65
78431;BME280;67727;50.236;22.452;2024-01-30T05:56:06;101690.89;;;-2.72;86.55
78431;BME280;67727;50.236;22.452;2024-01-30T05:58:33;101690.00;;;-2.71;86.69
78431;BME280;67727;50.236;22.452;2024-01-30T06:01:00;101694.48;;;-2.70;86.50
78431;BME280;67727;50.236;22.452;2024-01-30T06:03:26;101689.80;;;-2.69;86.60
78431;BME280;67727;50.236;22.452;2024-01-30T06:05:53;101692.84;;;-2.67;86.57
78431;BME280;67727;50.236;22.452;2024-01-30T06:08:20;101689.99;;;-2.65;86.35
78431;BME280;67727;50.236;22.452;2024-01-30T06:10:47;101688.60;;;-2.64;86.35
78431;BME280;67727;50.236;22.452;2024-01-30T06:13:14;101688.06;;;-2.64;86.38
78431;BME280;67727;50.236;22.452;2024-01-30T06:15:41;101689.14;;;-2.66;86.27
78431;BME280;67727;50.236;22.452;2024-01-30T06:18:08;101690.07;;;-2.68;86.19
78431;BME280;67727;50.236;22.452;2024-01-30T06:20:35;101688.56;;;-2.69;86.16
78431;BME280;67727;50.236;22.452;2024-01-30T06:23:02;101690.22;;;-2.73;86.25
78431;BME280;67727;50.236;22.452;2024-01-30T06:25:29;101692.08;;;-2.78;86.32
78431;BME280;67727;50.236;22.452;2024-01-30T06:27:56;101688.55;;;-2.81;86.33
78431;BME280;67727;50.236;22.452;2024-01-30T06:30:23;101688.09;;;-2.83;86.54
78431;BME280;67727;50.236;22.452;2024-01-30T06:32:49;101686.73;;;-2.84;86.67
78431;BME280;67727;50.236;22.452;2024-01-30T06:35:17;101684.13;;;-2.84;86.73
78431;BME280;67727;50.236;22.452;2024-01-30T06:37:44;101681.50;;;-2.83;86.79
78431;BME280;67727;50.236;22.452;2024-01-30T06:40:12;101682.98;;;-2.80;86.91
78431;BME280;67727;50.236;22.452;2024-01-30T06:42:39;101685.13;;;-2.76;86.99
78431;BME280;67727;50.236;22.452;2024-01-30T06:45:06;101687.59;;;-2.72;86.80
78431;BME280;67727;50.236;22.452;2024-01-30T06:47:34;101685.09;;;-2.68;86.79
78431;BME280;67727;50.236;22.452;2024-01-30T06:50:01;101684.09;;;-2.64;86.80
78431;BME280;67727;50.236;22.452;2024-01-30T06:52:29;101677.70;;;-2.58;86.93
78431;BME280;67727;50.236;22.452;2024-01-30T06:54:55;101676.13;;;-2.52;86.79
78431;BME280;67727;50.236;22.452;2024-01-30T06:57:22;101672.97;;;-2.45;86.62
78431;BME280;67727;50.236;22.452;2024-01-30T06:59:49;101676.54;;;-2.36;86.61
78431;BME280;67727;50.236;22.452;2024-01-30T07:02:16;101677.66;;;-2.27;86.71
78431;BME280;67727;50.236;22.452;2024-01-30T07:04:43;101679.11;;;-2.18;86.75
78431;BME280;67727;50.236;22.452;2024-01-30T07:07:10;101681.61;;;-2.09;86.47
78431;BME280;67727;50.236;22.452;2024-01-30T07:09:39;101683.29;;;-2.02;86.25
78431;BME280;67727;50.236;22.452;2024-01-30T07:12:06;101679.47;;;-1.96;86.29
78431;BME280;67727;50.236;22.452;2024-01-30T07:14:33;101680.17;;;-1.91;86.17
78431;BME280;67727;50.236;22.452;2024-01-30T07:17:01;101678.48;;;-1.87;85.92
78431;BME280;67727;50.236;22.452;2024-01-30T07:19:28;101676.26;;;-1.82;86.11
78431;BME280;67727;50.236;22.452;2024-01-30T07:21:55;101681.95;;;-1.76;86.23
78431;BME280;67727;50.236;22.452;2024-01-30T07:24:21;101683.84;;;-1.70;85.97
78431;BME280;67727;50.236;22.452;2024-01-30T07:26:48;101683.46;;;-1.63;85.89
78431;BME280;67727;50.236;22.452;2024-01-30T07:29:15;101685.98;;;-1.56;85.89
78431;BME280;67727;50.236;22.452;2024-01-30T07:31:42;101685.33;;;-1.47;85.40
78431;BME280;67727;50.236;22.452;2024-01-30T07:34:09;101684.81;;;-1.36;85.67
78431;BME280;67727;50.236;22.452;2024-01-30T07:36:36;101677.86;;;-1.26;85.52
78431;BME280;67727;50.236;22.452;2024-01-30T07:39:03;101681.98;;;-1.15;85.44
78431;BME280;67727;50.236;22.452;2024-01-30T07:41:30;101680.23;;;-1.04;85.26
78431;BME280;67727;50.236;22.452;2024-01-30T07:43:57;101679.06;;;-0.91;85.07
78431;BME280;67727;50.236;22.452;2024-01-30T07:46:24;101676.69;;;-0.77;84.88
78431;BME280;67727;50.236;22.452;2024-01-30T07:48:51;101671.13;;;-0.63;84.56
78431;BME280;67727;50.236;22.452;2024-01-30T07:51:17;101671.38;;;-0.51;84.36
78431;BME280;67727;50.236;22.452;2024-01-30T07:53:44;101668.27;;;-0.38;84.38
78431;BME280;67727;50.236;22.452;2024-01-30T07:56:11;101669.05;;;-0.26;83.81
78431;BME280;67727;50.236;22.452;2024-01-30T07:58:38;101665.52;;;-0.15;83.95
78431;BME280;67727;50.236;22.452;2024-01-30T08:01:05;101660.08;;;-0.06;83.74
78431;BME280;67727;50.236;22.452;2024-01-30T08:03:32;101659.89;;;0.04;83.33
78431;BME280;67727;50.236;22.452;2024-01-30T08:05:58;101659.74;;;0.12;83.19
78431;BME280;67727;50.236;22.452;2024-01-30T08:08:25;101658.67;;;0.21;83.04
78431;BME280;67727;50.236;22.452;2024-01-30T08:10:53;101656.12;;;0.29;82.48
78431;BME280;67727;50.236;22.452;2024-01-30T08:13:20;101659.94;;;0.37;82.37
78431;BME280;67727;50.236;22.452;2024-01-30T08:15:47;101655.57;;;0.46;82.27
78431;BME280;67727;50.236;22.452;2024-01-30T08:18:14;101654.80;;;0.56;82.35
78431;BME280;67727;50.236;22.452;2024-01-30T08:20:40;101654.52;;;0.67;81.92
78431;BME280;67727;50.236;22.452;2024-01-30T08:23:07;101649.31;;;0.79;81.83
78431;BME280;67727;50.236;22.452;2024-01-30T08:25:34;101656.23;;;0.92;81.33
78431;BME280;67727;50.236;22.452;2024-01-30T08:28:01;101655.33;;;1.05;81.11
78431;BME280;67727;50.236;22.452;2024-01-30T08:30:28;101656.65;;;1.18;81.21
78431;BME280;67727;50.236;22.452;2024-01-30T08:32:55;101655.06;;;1.30;80.73
78431;BME280;67727;50.236;22.452;2024-01-30T08:35:22;101652.81;;;1.41;79.80
78431;BME280;67727;50.236;22.452;2024-01-30T08:37:49;101659.94;;;1.53;79.66
78431;BME280;67727;50.236;22.452;2024-01-30T08:40:16;101658.56;;;1.64;79.29
78431;BME280;67727;50.236;22.452;2024-01-30T08:42:43;101660.00;;;1.74;78.55
78431;BME280;67727;50.236;22.452;2024-01-30T08:45:10;101662.76;;;1.86;78.09
78431;BME280;67727;50.236;22.452;2024-01-30T08:47:37;101664.84;;;1.98;77.45
78431;BME280;67727;50.236;22.452;2024-01-30T08:50:04;101665.69;;;2.09;76.37
78431;BME280;67727;50.236;22.452;2024-01-30T08:52:31;101665.98;;;2.21;75.68
78431;BME280;67727;50.236;22.452;2024-01-30T08:54:59;101663.48;;;2.32;75.00
78431;BME280;67727;50.236;22.452;2024-01-30T08:57:26;101662.50;;;2.45;73.43
78431;BME280;67727;50.236;22.452;2024-01-30T08:59:55;101657.83;;;2.59;74.05
78431;BME280;67727;50.236;22.452;2024-01-30T09:02:21;101658.44;;;2.74;73.54
78431;BME280;67727;50.236;22.452;2024-01-30T09:04:48;101656.23;;;2.90;73.13
78431;BME280;67727;50.236;22.452;2024-01-30T09:07:15;101654.02;;;3.06;72.07
78431;BME280;67727;50.236;22.452;2024-01-30T09:09:42;101651.25;;;3.22;72.13
78431;BME280;67727;50.236;22.452;2024-01-30T09:12:09;101648.39;;;3.39;71.99
78431;BME280;67727;50.236;22.452;2024-01-30T09:14:39;101647.89;;;3.55;71.35
78431;BME280;67727;50.236;22.452;2024-01-30T09:17:07;101646.55;;;3.70;70.58
78431;BME280;67727;50.236;22.452;2024-01-30T09:19:34;101640.55;;;3.84;70.15
78431;BME280;67727;50.236;22.452;2024-01-30T09:22:01;101639.14;;;3.96;70.23
78431;BME280;67727;50.236;22.452;2024-01-30T09:24:28;101634.58;;;4.09;69.74
78431;BME280;67727;50.236;22.452;2024-01-30T09:26:54;101634.65;;;4.23;69.14
78431;BME280;67727;50.236;22.452;2024-01-30T09:29:21;101627.06;;;4.36;68.73
78431;BME280;67727;50.236;22.452;2024-01-30T09:31:48;101629.48;;;4.49;68.54
78431;BME280;67727;50.236;22.452;2024-01-30T09:34:15;101632.40;;;4.61;68.45
78431;BME280;67727;50.236;22.452;2024-01-30T09:36:42;101635.32;;;4.74;67.46
78431;BME280;67727;50.236;22.452;2024-01-30T09:39:09;101629.11;;;4.84;66.93
78431;BME280;67727;50.236;22.452;2024-01-30T09:42:05;101628.55;;;4.97;67.06
78431;BME280;67727;50.236;22.452;2024-01-30T09:44:38;101626.89;;;5.06;66.03
78431;BME280;67727;50.236;22.452;2024-01-30T09:47:08;101622.96;;;5.13;65.80
78431;BME280;67727;50.236;22.452;2024-01-30T09:49:36;101619.84;;;5.21;65.97
78431;BME280;67727;50.236;22.452;2024-01-30T09:52:08;101619.96;;;5.31;65.36
78431;BME280;67727;50.236;22.452;2024-01-30T09:54:35;101620.66;;;5.39;64.36
78431;BME280;67727;50.236;22.452;2024-01-30T09:57:02;101613.73;;;5.49;64.55
78431;BME280;67727;50.236;22.452;2024-01-30T09:59:30;101617.84;;;5.62;65.28
78431;BME280;67727;50.236;22.452;2024-01-30T10:01:57;101616.48;;;5.72;64.44
78431;BME280;67727;50.236;22.452;2024-01-30T10:04:24;101615.63;;;5.83;64.50
78431;BME280;67727;50.236;22.452;2024-01-30T10:06:51;101616.67;;;5.94;64.24
78431;BME280;67727;50.236;22.452;2024-01-30T10:09:18;101613.40;;;6.04;63.17
78431;BME280;67727;50.236;22.452;2024-01-30T10:11:45;101610.27;;;6.12;62.33
78431;BME280;67727;50.236;22.452;2024-01-30T10:14:12;101612.02;;;6.20;62.18
78431;BME280;67727;50.236;22.452;2024-01-30T10:16:39;101610.64;;;6.27;61.38
78431;BME280;67727;50.236;22.452;2024-01-30T10:19:06;101603.86;;;6.34;61.52
78431;BME280;67727;50.236;22.452;2024-01-30T10:21:33;101597.52;;;6.40;60.57
78431;BME280;67727;50.236;22.452;2024-01-30T10:23:59;101592.25;;;6.47;61.01
78431;BME280;67727;50.236;22.452;2024-01-30T10:26:26;101592.23;;;6.55;61.32
78431;BME280;67727;50.236;22.452;2024-01-30T10:28:55;101587.63;;;6.61;60.28
78431;BME280;67727;50.236;22.452;2024-01-30T10:31:22;101585.87;;;6.64;59.09
78431;BME280;67727;50.236;22.452;2024-01-30T10:33:51;101582.83;;;6.67;59.12
78431;BME280;67727;50.236;22.452;2024-01-30T10:36:18;101579.97;;;6.70;58.95
78431;BME280;67727;50.236;22.452;2024-01-30T10:38:47;101580.63;;;6.73;58.90
78431;BME280;67727;50.236;22.452;2024-01-30T10:41:20;101574.52;;;6.76;57.91
78431;BME280;67727;50.236;22.452;2024-01-30T10:44:13;101572.48;;;6.77;57.72
78431;BME280;67727;50.236;22.452;2024-01-30T10:46:50;101567.25;;;6.79;57.11
78431;BME280;67727;50.236;22.452;2024-01-30T10:49:18;101565.05;;;6.80;57.16
78431;BME280;67727;50.236;22.452;2024-01-30T10:51:45;101562.39;;;6.84;57.74
78431;BME280;67727;50.236;22.452;2024-01-30T10:54:13;101561.54;;;6.88;57.13
78431;BME280;67727;50.236;22.452;2024-01-30T10:56:40;101556.30;;;6.93;57.40
78431;BME280;67727;50.236;22.452;2024-01-30T10:59:09;101556.22;;;6.99;57.88
78431;BME280;67727;50.236;22.452;2024-01-30T11:01:37;101559.25;;;7.03;57.51
78431;BME280;67727;50.236;22.452;2024-01-30T11:04:04;101550.69;;;7.08;57.43
78431;BME280;67727;50.236;22.452;2024-01-30T11:06:31;101549.98;;;7.15;57.44
78431;BME280;67727;50.236;22.452;2024-01-30T11:09:04;101544.34;;;7.20;56.23
78431;BME280;67727;50.236;22.452;2024-01-30T11:11:58;101540.84;;;7.22;56.54
78431;BME280;67727;50.236;22.452;2024-01-30T11:14:30;101532.93;;;7.24;56.26
78431;BME280;67727;50.236;22.452;2024-01-30T11:16:58;101534.52;;;7.27;56.90
78431;BME280;67727;50.236;22.452;2024-01-30T11:19:26;101530.77;;;7.32;56.47
78431;BME280;67727;50.236;22.452;2024-01-30T11:21:53;101525.91;;;7.36;56.63
78431;BME280;67727;50.236;22.452;2024-01-30T11:24:21;101526.66;;;7.41;56.11
78431;BME280;67727;50.236;22.452;2024-01-30T11:26:58;101526.19;;;7.43;55.83
78431;BME280;67727;50.236;22.452;2024-01-30T11:29:27;101524.95;;;7.43;54.85
78431;BME280;67727;50.236;22.452;2024-01-30T11:31:55;101522.69;;;7.45;55.36
78431;BME280;67727;50.236;22.452;2024-01-30T11:34:23;101520.77;;;7.47;55.55
78431;BME280;67727;50.236;22.452;2024-01-30T11:36:59;101521.72;;;7.49;55.51
78431;BME280;67727;50.236;22.452;2024-01-30T11:39:32;101519.27;;;7.48;55.31
78431;BME280;67727;50.236;22.452;2024-01-30T11:41:59;101519.25;;;7.46;54.29
78431;BME280;67727;50.236;22.452;2024-01-30T11:44:26;101516.27;;;7.44;54.41
78431;BME280;67727;50.236;22.452;2024-01-30T11:46:53;101514.13;;;7.42;54.30
78431;BME280;67727;50.236;22.452;2024-01-30T11:49:20;101513.50;;;7.41;54.47
78431;BME280;67727;50.236;22.452;2024-01-30T11:51:48;101512.84;;;7.38;54.11
78431;BME280;67727;50.236;22.452;2024-01-30T11:54:17;101511.21;;;7.38;54.19
78431;BME280;67727;50.236;22.452;2024-01-30T11:56:44;101506.66;;;7.38;53.88
78431;BME280;67727;50.236;22.452;2024-01-30T11:59:11;101505.21;;;7.39;54.72
78431;BME280;67727;50.236;22.452;2024-01-30T12:01:38;101510.02;;;7.40;55.08
78431;BME280;67727;50.236;22.452;2024-01-30T12:04:05;101507.05;;;7.40;54.13
78431;BME280;67727;50.236;22.452;2024-01-30T12:06:36;101500.52;;;7.40;54.79
78431;BME280;67727;50.236;22.452;2024-01-30T12:09:03;101500.86;;;7.40;54.19
78431;BME280;67727;50.236;22.452;2024-01-30T12:11:31;101500.77;;;7.42;54.65
78431;BME280;67727;50.236;22.452;2024-01-30T12:13:58;101501.23;;;7.43;54.40
78431;BME280;67727;50.236;22.452;2024-01-30T12:16:25;101501.44;;;7.44;54.05
78431;BME280;67727;50.236;22.452;2024-01-30T12:18:59;101500.48;;;7.45;53.98
78431;BME280;67727;50.236;22.452;2024-01-30T12:21:28;101500.95;;;7.46;53.95
78431;BME280;67727;50.236;22.452;2024-01-30T12:23:56;101501.27;;;7.47;54.30
78431;BME280;67727;50.236;22.452;2024-01-30T12:26:24;101495.21;;;7.48;54.57
78431;BME280;67727;50.236;22.452;2024-01-30T12:28:55;101495.52;;;7.48;54.20
78431;BME280;67727;50.236;22.452;2024-01-30T12:31:26;101492.15;;;7.49;54.62
78431;BME280;67727;50.236;22.452;2024-01-30T12:33:54;101488.84;;;7.50;54.85
78431;BME280;67727;50.236;22.452;2024-01-30T12:36:24;101489.25;;;7.50;52.90
78431;BME280;67727;50.236;22.452;2024-01-30T12:38:51;101488.31;;;7.48;53.11
78431;BME280;67727;50.236;22.452;2024-01-30T12:41:19;101482.16;;;7.46;53.00
78431;BME280;67727;50.236;22.452;2024-01-30T12:43:46;101484.59;;;7.42;52.65
78431;BME280;67727;50.236;22.452;2024-01-30T12:46:17;101485.05;;;7.37;53.04